sensor_id;sensor_type;location;lat;lon;timestamp;P1;durP1;ratioP1;P2;durP2;ratioP2
23474;SDS011;11910;52.086;21.066;2023-02-03T00:01:18;7.35;;;5.70;;
23474;SDS011;11910;52.086;21.066;2023-02-03T00:03:44;7.88;;;5.50;;
23474;SDS011;11910;52.086;21.066;2023-02-03T00:06:09;7.72;;;5.00;;
23474;SDS011;11910;52.086;21.066;2023-02-03T00:08:36;7.72;;;5.25;;
23474;SDS011;11910;52.086;21.066;2023-02-03T00:11:02;7.93;;;5.05;;
23474;SDS011;11910;52.086;21.066;2023-02-03T00:13:28;6.97;;;4.90;;
23474;SDS011;11910;52.086;21.066;2023-02-03T00:15:54;8.35;;;5.00;;
23474;SDS011;11910;52.086;21.066;2023-02-03T00:18:19;8.88;;;4.38;;
23474;SDS011;11910;52.086;21.066;2023-02-03T00:20:45;7.03;;;4.95;;
23474;SDS011;11910;52.086;21.066;2023-02-03T00:23:11;6.90;;;4.18;;
23474;SDS011;11910;52.086;21.066;2023-02-03T00:25:37;8.70;;;4.45;;
23474;SDS011;11910;52.086;21.066;2023-02-03T00:28:04;6.88;;;4.10;;
23474;SDS011;11910;52.086;21.066;2023-02-03T00:30:30;8.05;;;4.47;;
23474;SDS011;11910;52.086;21.066;2023-02-03T00:32:58;9.32;;;4.43;;
23474;SDS011;11910;52.086;21.066;2023-02-03T00:35:23;7.57;;;4.70;;
23474;SDS011;11910;52.086;21.066;2023-02-03T00:37:55;5.82;;;4.18;;
23474;SDS011;11910;52.086;21.066;2023-02-03T00:40:22;6.45;;;3.97;;
23474;SDS011;11910;52.086;21.066;2023-02-03T00:42:50;6.78;;;4.30;;
23474;SDS011;11910;52.086;21.066;2023-02-03T00:45:16;6.57;;;4.28;;
23474;SDS011;11910;52.086;21.066;2023-02-03T00:47:42;7.93;;;4.60;;
23474;SDS011;11910;52.086;21.066;2023-02-03T00:50:08;6.95;;;4.22;;
23474;SDS011;11910;52.086;21.066;2023-02-03T00:52:34;8.93;;;4.60;;
23474;SDS011;11910;52.086;21.066;2023-02-03T00:55:00;8.73;;;4.75;;
23474;SDS011;11910;52.086;21.066;2023-02-03T00:57:26;7.55;;;4.30;;
23474;SDS011;11910;52.086;21.066;2023-02-03T00:59:51;8.40;;;4.30;;
23474;SDS011;11910;52.086;21.066;2023-02-03T01:02:18;6.22;;;3.78;;
23474;SDS011;11910;52.086;21.066;2023-02-03T01:04:44;6.10;;;3.75;;
23474;SDS011;11910;52.086;21.066;2023-02-03T01:07:10;6.15;;;3.38;;
23474;SDS011;11910;52.086;21.066;2023-02-03T01:09:36;8.13;;;3.63;;
23474;SDS011;11910;52.086;21.066;2023-02-03T01:12:02;6.75;;;3.65;;
23474;SDS011;11910;52.086;21.066;2023-02-03T01:14:28;7.78;;;4.13;;
23474;SDS011;11910;52.086;21.066;2023-02-03T01:16:54;6.20;;;3.25;;
23474;SDS011;11910;52.086;21.066;2023-02-03T01:19:19;6.55;;;3.50;;
23474;SDS011;11910;52.086;21.066;2023-02-03T01:21:45;5.70;;;3.28;;
23474;SDS011;11910;52.086;21.066;2023-02-03T01:24:11;8.18;;;3.70;;
23474;SDS011;11910;52.086;21.066;2023-02-03T01:26:39;7.00;;;3.70;;
23474;SDS011;11910;52.086;21.066;2023-02-03T01:29:05;7.30;;;3.80;;
23474;SDS011;11910;52.086;21.066;2023-02-03T01:31:32;6.97;;;3.97;;
23474;SDS011;11910;52.086;21.066;2023-02-03T01:34:01;6.90;;;3.75;;
23474;SDS011;11910;52.086;21.066;2023-02-03T01:36:28;6.50;;;3.70;;
23474;SDS011;11910;52.086;21.066;2023-02-03T01:38:55;6.82;;;3.90;;
23474;SDS011;11910;52.086;21.066;2023-02-03T01:41:28;6.38;;;3.45;;
23474;SDS011;11910;52.086;21.066;2023-02-03T01:43:56;6.35;;;3.67;;
23474;SDS011;11910;52.086;21.066;2023-02-03T01:49:04;6.43;;;3.70;;
23474;SDS011;11910;52.086;21.066;2023-02-03T01:51:37;6.72;;;3.53;;
23474;SDS011;11910;52.086;21.066;2023-02-03T01:54:06;7.93;;;3.80;;
23474;SDS011;11910;52.086;21.066;2023-02-03T01:56:35;5.20;;;3.33;;
23474;SDS011;11910;52.086;21.066;2023-02-03T01:59:04;5.40;;;3.30;;
23474;SDS011;11910;52.086;21.066;2023-02-03T02:01:30;7.68;;;3.53;;
23474;SDS011;11910;52.086;21.066;2023-02-03T02:03:57;6.05;;;3.47;;
23474;SDS011;11910;52.086;21.066;2023-02-03T02:06:25;6.07;;;3.30;;
23474;SDS011;11910;52.086;21.066;2023-02-03T02:08:51;8.80;;;3.50;;
23474;SDS011;11910;52.086;21.066;2023-02-03T02:11:17;5.60;;;3.47;;
23474;SDS011;11910;52.086;21.066;2023-02-03T02:13:47;5.90;;;3.65;;
23474;SDS011;11910;52.086;21.066;2023-02-03T02:16:17;7.22;;;4.45;;
23474;SDS011;11910;52.086;21.066;2023-02-03T02:21:23;5.93;;;4.03;;
23474;SDS011;11910;52.086;21.066;2023-02-03T02:30:17;6.72;;;3.15;;
23474;SDS011;11910;52.086;21.066;2023-02-03T02:40:32;6.28;;;2.85;;
23474;SDS011;11910;52.086;21.066;2023-02-03T02:45:50;5.20;;;3.05;;
23474;SDS011;11910;52.086;21.066;2023-02-03T02:50:54;4.13;;;2.40;;
23474;SDS011;11910;52.086;21.066;2023-02-03T02:53:23;6.35;;;2.90;;
23474;SDS011;11910;52.086;21.066;2023-02-03T02:55:52;4.93;;;2.90;;
23474;SDS011;11910;52.086;21.066;2023-02-03T02:58:21;5.85;;;2.80;;
23474;SDS011;11910;52.086;21.066;2023-02-03T03:00:48;7.30;;;2.88;;
23474;SDS011;11910;52.086;21.066;2023-02-03T03:03:21;7.00;;;2.90;;
23474;SDS011;11910;52.086;21.066;2023-02-03T03:05:50;4.68;;;2.45;;
23474;SDS011;11910;52.086;21.066;2023-02-03T03:08:26;6.25;;;3.40;;
23474;SDS011;11910;52.086;21.066;2023-02-03T03:11:05;5.10;;;2.83;;
23474;SDS011;11910;52.086;21.066;2023-02-03T03:13:33;5.25;;;3.28;;
23474;SDS011;11910;52.086;21.066;2023-02-03T03:16:02;5.53;;;3.33;;
23474;SDS011;11910;52.086;21.066;2023-02-03T03:21:24;5.72;;;3.92;;
23474;SDS011;11910;52.086;21.066;2023-02-03T03:23:58;5.95;;;4.00;;
23474;SDS011;11910;52.086;21.066;2023-02-03T03:29:20;8.38;;;4.65;;
23474;SDS011;11910;52.086;21.066;2023-02-03T03:31:50;9.43;;;5.25;;
23474;SDS011;11910;52.086;21.066;2023-02-03T03:34:16;8.80;;;5.00;;
23474;SDS011;11910;52.086;21.066;2023-02-03T03:36:46;6.38;;;4.53;;
23474;SDS011;11910;52.086;21.066;2023-02-03T03:39:27;9.48;;;4.82;;
23474;SDS011;11910;52.086;21.066;2023-02-03T03:41:57;7.70;;;5.05;;
23474;SDS011;11910;52.086;21.066;2023-02-03T03:44:37;7.82;;;5.15;;
23474;SDS011;11910;52.086;21.066;2023-02-03T03:49:37;7.50;;;5.28;;
23474;SDS011;11910;52.086;21.066;2023-02-03T03:52:07;8.52;;;5.18;;
23474;SDS011;11910;52.086;21.066;2023-02-03T03:54:35;7.80;;;5.10;;
23474;SDS011;11910;52.086;21.066;2023-02-03T03:57:08;8.20;;;5.40;;
23474;SDS011;11910;52.086;21.066;2023-02-03T03:59:39;8.13;;;4.97;;
23474;SDS011;11910;52.086;21.066;2023-02-03T04:02:08;10.90;;;5.40;;
23474;SDS011;11910;52.086;21.066;2023-02-03T04:04:36;7.43;;;4.82;;
23474;SDS011;11910;52.086;21.066;2023-02-03T04:07:02;8.88;;;5.30;;
23474;SDS011;11910;52.086;21.066;2023-02-03T04:09:28;8.82;;;5.80;;
23474;SDS011;11910;52.086;21.066;2023-02-03T04:11:54;9.20;;;5.32;;
23474;SDS011;11910;52.086;21.066;2023-02-03T04:14:26;8.07;;;5.22;;
23474;SDS011;11910;52.086;21.066;2023-02-03T04:16:55;7.85;;;5.47;;
23474;SDS011;11910;52.086;21.066;2023-02-03T04:19:21;7.55;;;5.57;;
23474;SDS011;11910;52.086;21.066;2023-02-03T04:21:47;9.02;;;5.80;;
23474;SDS011;11910;52.086;21.066;2023-02-03T04:24:13;10.13;;;6.65;;
23474;SDS011;11910;52.086;21.066;2023-02-03T04:26:39;9.10;;;6.07;;
23474;SDS011;11910;52.086;21.066;2023-02-03T04:29:04;7.68;;;5.90;;
23474;SDS011;11910;52.086;21.066;2023-02-03T04:31:30;10.75;;;6.03;;
23474;SDS011;11910;52.086;21.066;2023-02-03T04:33:56;9.88;;;6.32;;
23474;SDS011;11910;52.086;21.066;2023-02-03T04:36:21;10.02;;;5.60;;
23474;SDS011;11910;52.086;21.066;2023-02-03T04:38:47;7.85;;;5.43;;
23474;SDS011;11910;52.086;21.066;2023-02-03T04:41:13;8.73;;;5.90;;
23474;SDS011;11910;52.086;21.066;2023-02-03T04:43:39;11.75;;;6.13;;
23474;SDS011;11910;52.086;21.066;2023-02-03T04:46:05;8.90;;;5.85;;
23474;SDS011;11910;52.086;21.066;2023-02-03T04:48:30;9.93;;;5.90;;
23474;SDS011;11910;52.086;21.066;2023-02-03T04:51:00;11.65;;;6.05;;
23474;SDS011;11910;52.086;21.066;2023-02-03T04:53:30;9.45;;;6.32;;
23474;SDS011;11910;52.086;21.066;2023-02-03T04:55:55;8.35;;;5.60;;
23474;SDS011;11910;52.086;21.066;2023-02-03T04:58:21;9.35;;;6.47;;
23474;SDS011;11910;52.086;21.066;2023-02-03T05:00:47;11.02;;;6.47;;
23474;SDS011;11910;52.086;21.066;2023-02-03T05:03:12;12.75;;;7.22;;
23474;SDS011;11910;52.086;21.066;2023-02-03T05:05:38;12.48;;;6.57;;
23474;SDS011;11910;52.086;21.066;2023-02-03T05:08:04;10.60;;;6.57;;
23474;SDS011;11910;52.086;21.066;2023-02-03T05:10:30;13.05;;;7.35;;
23474;SDS011;11910;52.086;21.066;2023-02-03T05:12:55;12.10;;;7.07;;
23474;SDS011;11910;52.086;21.066;2023-02-03T05:15:21;10.77;;;6.78;;
23474;SDS011;11910;52.086;21.066;2023-02-03T05:17:46;13.18;;;6.75;;
23474;SDS011;11910;52.086;21.066;2023-02-03T05:20:12;11.73;;;6.38;;
23474;SDS011;11910;52.086;21.066;2023-02-03T05:22:38;12.90;;;6.60;;
23474;SDS011;11910;52.086;21.066;2023-02-03T05:25:04;10.27;;;5.95;;
23474;SDS011;11910;52.086;21.066;2023-02-03T05:27:30;13.27;;;6.20;;
23474;SDS011;11910;52.086;21.066;2023-02-03T05:29:55;13.13;;;7.88;;
23474;SDS011;11910;52.086;21.066;2023-02-03T05:32:21;10.95;;;6.63;;
23474;SDS011;11910;52.086;21.066;2023-02-03T05:34:46;12.10;;;8.60;;
23474;SDS011;11910;52.086;21.066;2023-02-03T05:37:12;14.10;;;7.97;;
23474;SDS011;11910;52.086;21.066;2023-02-03T05:39:37;13.43;;;8.32;;
23474;SDS011;11910;52.086;21.066;2023-02-03T05:42:03;12.70;;;7.50;;
23474;SDS011;11910;52.086;21.066;2023-02-03T05:44:29;11.48;;;7.38;;
23474;SDS011;11910;52.086;21.066;2023-02-03T05:46:56;12.02;;;6.57;;
23474;SDS011;11910;52.086;21.066;2023-02-03T05:49:23;11.27;;;6.85;;
23474;SDS011;11910;52.086;21.066;2023-02-03T05:51:49;11.32;;;6.50;;
23474;SDS011;11910;52.086;21.066;2023-02-03T05:54:17;11.23;;;6.50;;
23474;SDS011;11910;52.086;21.066;2023-02-03T05:56:43;14.73;;;7.50;;
23474;SDS011;11910;52.086;21.066;2023-02-03T05:59:08;14.80;;;7.60;;
23474;SDS011;11910;52.086;21.066;2023-02-03T06:01:34;12.80;;;7.13;;
23474;SDS011;11910;52.086;21.066;2023-02-03T06:04:00;12.65;;;7.25;;
23474;SDS011;11910;52.086;21.066;2023-02-03T06:06:27;10.05;;;6.90;;
23474;SDS011;11910;52.086;21.066;2023-02-03T06:11:33;14.95;;;7.25;;
23474;SDS011;11910;52.086;21.066;2023-02-03T06:13:59;13.88;;;7.75;;
23474;SDS011;11910;52.086;21.066;2023-02-03T06:16:25;13.02;;;7.65;;
23474;SDS011;11910;52.086;21.066;2023-02-03T06:18:52;21.83;;;9.70;;
23474;SDS011;11910;52.086;21.066;2023-02-03T06:21:19;22.02;;;10.57;;
23474;SDS011;11910;52.086;21.066;2023-02-03T06:23:46;20.50;;;11.00;;
23474;SDS011;11910;52.086;21.066;2023-02-03T06:26:11;19.30;;;9.65;;
23474;SDS011;11910;52.086;21.066;2023-02-03T06:28:37;17.58;;;9.98;;
23474;SDS011;11910;52.086;21.066;2023-02-03T06:31:03;17.02;;;10.10;;
23474;SDS011;11910;52.086;21.066;2023-02-03T06:33:29;22.58;;;10.65;;
23474;SDS011;11910;52.086;21.066;2023-02-03T06:35:55;18.60;;;10.43;;
23474;SDS011;11910;52.086;21.066;2023-02-03T06:38:21;18.63;;;11.05;;
23474;SDS011;11910;52.086;21.066;2023-02-03T06:40:47;19.48;;;10.95;;
23474;SDS011;11910;52.086;21.066;2023-02-03T06:43:13;18.85;;;10.70;;
23474;SDS011;11910;52.086;21.066;2023-02-03T06:45:39;18.90;;;11.02;;
23474;SDS011;11910;52.086;21.066;2023-02-03T06:48:04;18.17;;;10.32;;
23474;SDS011;11910;52.086;21.066;2023-02-03T06:50:30;17.85;;;10.77;;
23474;SDS011;11910;52.086;21.066;2023-02-03T06:52:56;22.80;;;11.10;;
23474;SDS011;11910;52.086;21.066;2023-02-03T06:55:21;21.02;;;11.50;;
23474;SDS011;11910;52.086;21.066;2023-02-03T06:57:47;17.73;;;10.98;;
23474;SDS011;11910;52.086;21.066;2023-02-03T07:00:14;18.92;;;10.68;;
23474;SDS011;11910;52.086;21.066;2023-02-03T07:02:41;29.17;;;17.92;;
23474;SDS011;11910;52.086;21.066;2023-02-03T07:05:07;46.30;;;27.45;;
23474;SDS011;11910;52.086;21.066;2023-02-03T07:07:33;35.10;;;22.17;;
23474;SDS011;11910;52.086;21.066;2023-02-03T07:10:00;35.33;;;22.00;;
23474;SDS011;11910;52.086;21.066;2023-02-03T07:12:26;37.20;;;22.67;;
23474;SDS011;11910;52.086;21.066;2023-02-03T07:14:51;27.23;;;16.42;;
23474;SDS011;11910;52.086;21.066;2023-02-03T07:17:17;25.17;;;16.00;;
23474;SDS011;11910;52.086;21.066;2023-02-03T07:19:43;24.75;;;13.50;;
23474;SDS011;11910;52.086;21.066;2023-02-03T07:22:09;24.73;;;16.08;;
23474;SDS011;11910;52.086;21.066;2023-02-03T07:24:35;23.70;;;13.95;;
23474;SDS011;11910;52.086;21.066;2023-02-03T07:27:01;19.23;;;12.63;;
23474;SDS011;11910;52.086;21.066;2023-02-03T07:29:27;17.30;;;10.75;;
23474;SDS011;11910;52.086;21.066;2023-02-03T07:31:52;21.38;;;12.90;;
23474;SDS011;11910;52.086;21.066;2023-02-03T07:34:18;18.00;;;9.93;;
23474;SDS011;11910;52.086;21.066;2023-02-03T07:36:43;14.10;;;8.80;;
23474;SDS011;11910;52.086;21.066;2023-02-03T07:39:09;14.15;;;8.27;;
23474;SDS011;11910;52.086;21.066;2023-02-03T07:41:34;12.23;;;8.00;;
23474;SDS011;11910;52.086;21.066;2023-02-03T07:44:00;12.55;;;7.50;;
23474;SDS011;11910;52.086;21.066;2023-02-03T07:46:26;15.38;;;7.82;;
23474;SDS011;11910;52.086;21.066;2023-02-03T07:48:52;20.33;;;9.88;;
23474;SDS011;11910;52.086;21.066;2023-02-03T07:51:17;18.35;;;10.48;;
23474;SDS011;11910;52.086;21.066;2023-02-03T07:53:43;19.70;;;11.35;;
23474;SDS011;11910;52.086;21.066;2023-02-03T07:56:09;14.73;;;8.60;;
23474;SDS011;11910;52.086;21.066;2023-02-03T07:58:36;16.27;;;9.18;;
23474;SDS011;11910;52.086;21.066;2023-02-03T08:01:08;14.55;;;8.82;;
23474;SDS011;11910;52.086;21.066;2023-02-03T08:03:38;10.25;;;5.65;;
23474;SDS011;11910;52.086;21.066;2023-02-03T08:06:04;12.48;;;7.50;;
23474;SDS011;11910;52.086;21.066;2023-02-03T08:08:30;10.88;;;5.60;;
23474;SDS011;11910;52.086;21.066;2023-02-03T08:10:55;13.95;;;8.10;;
23474;SDS011;11910;52.086;21.066;2023-02-03T08:13:21;13.15;;;8.02;;
23474;SDS011;11910;52.086;21.066;2023-02-03T08:15:47;11.00;;;6.40;;
23474;SDS011;11910;52.086;21.066;2023-02-03T08:18:13;12.15;;;6.25;;
23474;SDS011;11910;52.086;21.066;2023-02-03T08:20:38;14.40;;;6.95;;
23474;SDS011;11910;52.086;21.066;2023-02-03T08:23:04;11.13;;;6.10;;
23474;SDS011;11910;52.086;21.066;2023-02-03T08:25:30;10.32;;;5.60;;
23474;SDS011;11910;52.086;21.066;2023-02-03T08:27:56;11.38;;;5.85;;
23474;SDS011;11910;52.086;21.066;2023-02-03T08:30:22;11.63;;;5.70;;
23474;SDS011;11910;52.086;21.066;2023-02-03T08:32:48;10.68;;;5.72;;
23474;SDS011;11910;52.086;21.066;2023-02-03T08:35:16;10.43;;;5.68;;
23474;SDS011;11910;52.086;21.066;2023-02-03T08:37:51;11.32;;;5.63;;
23474;SDS011;11910;52.086;21.066;2023-02-03T08:40:22;9.27;;;4.90;;
23474;SDS011;11910;52.086;21.066;2023-02-03T08:42:48;9.13;;;4.93;;
23474;SDS011;11910;52.086;21.066;2023-02-03T08:45:13;11.43;;;5.38;;
23474;SDS011;11910;52.086;21.066;2023-02-03T08:47:39;10.52;;;5.40;;
23474;SDS011;11910;52.086;21.066;2023-02-03T08:50:06;13.10;;;6.50;;
23474;SDS011;11910;52.086;21.066;2023-02-03T08:52:33;16.95;;;11.32;;
23474;SDS011;11910;52.086;21.066;2023-02-03T08:54:58;12.20;;;6.82;;
23474;SDS011;11910;52.086;21.066;2023-02-03T08:57:24;12.27;;;5.90;;
23474;SDS011;11910;52.086;21.066;2023-02-03T08:59:49;8.23;;;5.40;;
23474;SDS011;11910;52.086;21.066;2023-02-03T09:02:16;13.77;;;6.72;;
23474;SDS011;11910;52.086;21.066;2023-02-03T09:04:43;13.00;;;5.82;;
23474;SDS011;11910;52.086;21.066;2023-02-03T09:07:10;8.15;;;4.93;;
23474;SDS011;11910;52.086;21.066;2023-02-03T09:09:36;7.50;;;4.55;;
23474;SDS011;11910;52.086;21.066;2023-02-03T09:12:01;7.25;;;3.78;;
23474;SDS011;11910;52.086;21.066;2023-02-03T09:14:29;6.60;;;4.10;;
23474;SDS011;11910;52.086;21.066;2023-02-03T09:16:59;7.60;;;4.03;;
23474;SDS011;11910;52.086;21.066;2023-02-03T09:19:27;8.68;;;4.03;;
23474;SDS011;11910;52.086;21.066;2023-02-03T09:21:53;8.65;;;5.05;;
23474;SDS011;11910;52.086;21.066;2023-02-03T09:24:18;9.00;;;4.80;;
23474;SDS011;11910;52.086;21.066;2023-02-03T09:26:44;5.35;;;3.53;;
23474;SDS011;11910;52.086;21.066;2023-02-03T09:29:09;7.28;;;3.92;;
23474;SDS011;11910;52.086;21.066;2023-02-03T09:31:35;6.43;;;3.80;;
23474;SDS011;11910;52.086;21.066;2023-02-03T09:34:01;7.00;;;3.92;;
23474;SDS011;11910;52.086;21.066;2023-02-03T09:36:26;6.55;;;3.60;;
23474;SDS011;11910;52.086;21.066;2023-02-03T09:38:52;6.22;;;3.55;;
23474;SDS011;11910;52.086;21.066;2023-02-03T09:46:28;8.30;;;3.55;;
23474;SDS011;11910;52.086;21.066;2023-02-03T09:51:28;5.82;;;3.30;;
23474;SDS011;11910;52.086;21.066;2023-02-03T09:54:02;5.10;;;3.25;;
23474;SDS011;11910;52.086;21.066;2023-02-03T09:56:52;5.05;;;2.58;;
23474;SDS011;11910;52.086;21.066;2023-02-03T09:59:20;6.43;;;2.75;;
23474;SDS011;11910;52.086;21.066;2023-02-03T10:04:49;4.57;;;2.40;;
23474;SDS011;11910;52.086;21.066;2023-02-03T10:07:24;4.68;;;2.25;;
23474;SDS011;11910;52.086;21.066;2023-02-03T10:12:33;5.22;;;2.60;;
23474;SDS011;11910;52.086;21.066;2023-02-03T10:17:58;3.33;;;1.80;;
23474;SDS011;11910;52.086;21.066;2023-02-03T10:20:33;2.70;;;1.50;;
23474;SDS011;11910;52.086;21.066;2023-02-03T10:23:13;5.63;;;2.20;;
23474;SDS011;11910;52.086;21.066;2023-02-03T10:25:52;3.28;;;1.60;;
23474;SDS011;11910;52.086;21.066;2023-02-03T10:28:23;4.10;;;1.80;;
23474;SDS011;11910;52.086;21.066;2023-02-03T10:31:00;3.92;;;2.13;;
23474;SDS011;11910;52.086;21.066;2023-02-03T10:33:29;3.35;;;2.00;;
23474;SDS011;11910;52.086;21.066;2023-02-03T10:39:03;5.05;;;2.00;;
23474;SDS011;11910;52.086;21.066;2023-02-03T10:41:39;5.90;;;3.17;;
23474;SDS011;11910;52.086;21.066;2023-02-03T10:44:05;4.60;;;2.80;;
23474;SDS011;11910;52.086;21.066;2023-02-03T10:46:33;4.43;;;2.58;;
23474;SDS011;11910;52.086;21.066;2023-02-03T10:49:01;6.88;;;2.10;;
23474;SDS011;11910;52.086;21.066;2023-02-03T10:51:27;3.90;;;2.17;;
23474;SDS011;11910;52.086;21.066;2023-02-03T10:56:45;5.32;;;2.30;;
23474;SDS011;11910;52.086;21.066;2023-02-03T10:59:21;4.70;;;2.50;;
23474;SDS011;11910;52.086;21.066;2023-02-03T11:01:53;6.40;;;2.45;;
23474;SDS011;11910;52.086;21.066;2023-02-03T11:04:29;4.63;;;2.50;;
23474;SDS011;11910;52.086;21.066;2023-02-03T11:06:57;3.95;;;2.50;;
23474;SDS011;11910;52.086;21.066;2023-02-03T11:09:36;6.95;;;3.10;;
23474;SDS011;11910;52.086;21.066;2023-02-03T11:12:16;6.82;;;2.78;;
23474;SDS011;11910;52.086;21.066;2023-02-03T11:14:44;8.00;;;3.28;;
23474;SDS011;11910;52.086;21.066;2023-02-03T11:19:53;5.35;;;3.15;;
23474;SDS011;11910;52.086;21.066;2023-02-03T11:22:27;6.97;;;3.33;;
23474;SDS011;11910;52.086;21.066;2023-02-03T11:24:53;5.50;;;2.72;;
23474;SDS011;11910;52.086;21.066;2023-02-03T11:27:20;5.20;;;2.60;;
23474;SDS011;11910;52.086;21.066;2023-02-03T11:29:49;5.25;;;2.78;;
23474;SDS011;11910;52.086;21.066;2023-02-03T11:32:35;3.83;;;2.38;;
23474;SDS011;11910;52.086;21.066;2023-02-03T11:35:21;6.93;;;2.70;;
23474;SDS011;11910;52.086;21.066;2023-02-03T11:37:53;4.07;;;2.40;;
23474;SDS011;11910;52.086;21.066;2023-02-03T11:40:27;3.67;;;2.47;;
23474;SDS011;11910;52.086;21.066;2023-02-03T11:50:43;7.63;;;2.60;;
23474;SDS011;11910;52.086;21.066;2023-02-03T11:53:43;4.72;;;2.70;;
23474;SDS011;11910;52.086;21.066;2023-02-03T11:58:59;6.70;;;3.13;;
23474;SDS011;11910;52.086;21.066;2023-02-03T12:09:41;5.00;;;2.47;;
23474;SDS011;11910;52.086;21.066;2023-02-03T12:14:55;4.55;;;2.50;;
23474;SDS011;11910;52.086;21.066;2023-02-03T12:17:39;5.10;;;2.80;;
23474;SDS011;11910;52.086;21.066;2023-02-03T12:28:51;4.43;;;2.40;;
23474;SDS011;11910;52.086;21.066;2023-02-03T12:31:24;5.70;;;2.72;;
23474;SDS011;11910;52.086;21.066;2023-02-03T12:34:14;6.38;;;2.90;;
23474;SDS011;11910;52.086;21.066;2023-02-03T12:42:20;6.57;;;2.97;;
23474;SDS011;11910;52.086;21.066;2023-02-03T12:45:24;4.00;;;2.55;;
23474;SDS011;11910;52.086;21.066;2023-02-03T12:50:39;6.72;;;3.10;;
23474;SDS011;11910;52.086;21.066;2023-02-03T12:53:12;5.57;;;2.90;;
23474;SDS011;11910;52.086;21.066;2023-02-03T12:55:54;5.30;;;2.80;;
23474;SDS011;11910;52.086;21.066;2023-02-03T12:58:32;6.18;;;3.20;;
23474;SDS011;11910;52.086;21.066;2023-02-03T13:01:07;6.82;;;3.08;;
23474;SDS011;11910;52.086;21.066;2023-02-03T13:03:41;6.22;;;3.30;;
23474;SDS011;11910;52.086;21.066;2023-02-03T13:06:17;4.82;;;3.20;;
23474;SDS011;11910;52.086;21.066;2023-02-03T13:14:21;7.90;;;4.03;;
23474;SDS011;11910;52.086;21.066;2023-02-03T13:16:52;8.95;;;4.30;;
23474;SDS011;11910;52.086;21.066;2023-02-03T13:19:24;7.57;;;4.03;;
23474;SDS011;11910;52.086;21.066;2023-02-03T13:21:52;8.30;;;4.15;;
23474;SDS011;11910;52.086;21.066;2023-02-03T13:24:17;10.18;;;5.22;;
23474;SDS011;11910;52.086;21.066;2023-02-03T13:26:54;8.23;;;4.72;;
23474;SDS011;11910;52.086;21.066;2023-02-03T13:35:20;10.60;;;5.43;;
23474;SDS011;11910;52.086;21.066;2023-02-03T13:43:29;11.43;;;7.13;;
23474;SDS011;11910;52.086;21.066;2023-02-03T13:46:00;12.13;;;6.38;;
23474;SDS011;11910;52.086;21.066;2023-02-03T13:48:27;13.65;;;7.15;;
23474;SDS011;11910;52.086;21.066;2023-02-03T13:53:42;14.32;;;8.00;;
23474;SDS011;11910;52.086;21.066;2023-02-03T13:56:16;11.75;;;8.05;;
23474;SDS011;11910;52.086;21.066;2023-02-03T14:10:08;16.55;;;10.95;;
23474;SDS011;11910;52.086;21.066;2023-02-03T14:12:58;20.60;;;11.70;;
23474;SDS011;11910;52.086;21.066;2023-02-03T14:22:54;25.35;;;12.55;;
23474;SDS011;11910;52.086;21.066;2023-02-03T14:25:31;29.55;;;15.70;;
23474;SDS011;11910;52.086;21.066;2023-02-03T14:28:04;26.75;;;16.30;;
23474;SDS011;11910;52.086;21.066;2023-02-03T14:36:32;39.78;;;19.63;;
23474;SDS011;11910;52.086;21.066;2023-02-03T14:47:22;62.13;;;36.22;;
23474;SDS011;11910;52.086;21.066;2023-02-03T14:55:51;40.25;;;21.52;;
23474;SDS011;11910;52.086;21.066;2023-02-03T14:59:05;41.15;;;20.85;;
23474;SDS011;11910;52.086;21.066;2023-02-03T15:06:40;42.50;;;21.02;;
23474;SDS011;11910;52.086;21.066;2023-02-03T15:09:12;49.92;;;22.70;;
23474;SDS011;11910;52.086;21.066;2023-02-03T15:11:47;41.15;;;20.85;;
23474;SDS011;11910;52.086;21.066;2023-02-03T15:14:16;42.45;;;19.92;;
23474;SDS011;11910;52.086;21.066;2023-02-03T15:16:47;33.75;;;16.92;;
23474;SDS011;11910;52.086;21.066;2023-02-03T15:19:26;40.58;;;18.05;;
23474;SDS011;11910;52.086;21.066;2023-02-03T15:21:56;37.83;;;15.70;;
23474;SDS011;11910;52.086;21.066;2023-02-03T15:24:22;34.80;;;15.38;;
23474;SDS011;11910;52.086;21.066;2023-02-03T15:26:50;41.03;;;16.20;;
23474;SDS011;11910;52.086;21.066;2023-02-03T15:29:21;46.63;;;17.98;;
23474;SDS011;11910;52.086;21.066;2023-02-03T15:32:13;44.45;;;16.17;;
23474;SDS011;11910;52.086;21.066;2023-02-03T15:34:40;43.05;;;16.58;;
23474;SDS011;11910;52.086;21.066;2023-02-03T15:37:16;46.83;;;16.10;;
23474;SDS011;11910;52.086;21.066;2023-02-03T15:40:08;40.60;;;16.48;;
23474;SDS011;11910;52.086;21.066;2023-02-03T15:48:04;44.70;;;17.02;;
23474;SDS011;11910;52.086;21.066;2023-02-03T15:53:16;47.95;;;16.83;;
23474;SDS011;11910;52.086;21.066;2023-02-03T15:55:44;44.67;;;17.00;;
23474;SDS011;11910;52.086;21.066;2023-02-03T15:58:19;51.80;;;17.30;;
23474;SDS011;11910;52.086;21.066;2023-02-03T16:00:49;52.95;;;16.77;;
23474;SDS011;11910;52.086;21.066;2023-02-03T16:03:19;52.55;;;17.50;;
23474;SDS011;11910;52.086;21.066;2023-02-03T16:05:53;52.33;;;17.60;;
23474;SDS011;11910;52.086;21.066;2023-02-03T16:08:41;60.33;;;22.67;;
23474;SDS011;11910;52.086;21.066;2023-02-03T16:13:54;52.92;;;19.15;;
23474;SDS011;11910;52.086;21.066;2023-02-03T16:16:22;61.92;;;20.00;;
23474;SDS011;11910;52.086;21.066;2023-02-03T16:19:33;57.63;;;20.10;;
23474;SDS011;11910;52.086;21.066;2023-02-03T16:30:14;70.20;;;22.20;;
23474;SDS011;11910;52.086;21.066;2023-02-03T16:33:14;67.85;;;21.80;;
23474;SDS011;11910;52.086;21.066;2023-02-03T16:36:10;70.10;;;21.77;;
23474;SDS011;11910;52.086;21.066;2023-02-03T16:38:56;72.97;;;22.58;;
23474;SDS011;11910;52.086;21.066;2023-02-03T16:41:43;81.28;;;24.52;;
23474;SDS011;11910;52.086;21.066;2023-02-03T16:44:28;81.63;;;23.52;;
23474;SDS011;11910;52.086;21.066;2023-02-03T16:47:22;83.10;;;23.20;;
23474;SDS011;11910;52.086;21.066;2023-02-03T16:50:30;81.50;;;22.55;;
23474;SDS011;11910;52.086;21.066;2023-02-03T16:53:18;83.05;;;22.88;;
23474;SDS011;11910;52.086;21.066;2023-02-03T16:55:46;87.07;;;23.83;;
23474;SDS011;11910;52.086;21.066;2023-02-03T16:58:13;82.68;;;25.23;;
23474;SDS011;11910;52.086;21.066;2023-02-03T17:00:39;83.72;;;24.45;;
23474;SDS011;11910;52.086;21.066;2023-02-03T17:03:06;83.80;;;24.42;;
23474;SDS011;11910;52.086;21.066;2023-02-03T17:05:41;87.22;;;24.75;;
23474;SDS011;11910;52.086;21.066;2023-02-03T17:08:08;81.03;;;25.70;;
23474;SDS011;11910;52.086;21.066;2023-02-03T17:10:34;135.00;;;35.00;;
23474;SDS011;11910;52.086;21.066;2023-02-03T17:13:01;89.32;;;28.20;;
23474;SDS011;11910;52.086;21.066;2023-02-03T17:15:27;93.47;;;26.67;;
23474;SDS011;11910;52.086;21.066;2023-02-03T17:17:53;93.72;;;27.98;;
23474;SDS011;11910;52.086;21.066;2023-02-03T17:20:18;93.15;;;26.88;;
23474;SDS011;11910;52.086;21.066;2023-02-03T17:22:44;92.88;;;27.70;;
23474;SDS011;11910;52.086;21.066;2023-02-03T17:25:09;85.80;;;26.38;;
23474;SDS011;11910;52.086;21.066;2023-02-03T17:27:35;103.20;;;30.23;;
23474;SDS011;11910;52.086;21.066;2023-02-03T17:30:01;122.53;;;34.25;;
23474;SDS011;11910;52.086;21.066;2023-02-03T17:32:27;125.22;;;32.55;;
23474;SDS011;11910;52.086;21.066;2023-02-03T17:34:52;104.32;;;31.13;;
23474;SDS011;11910;52.086;21.066;2023-02-03T17:37:18;93.90;;;29.08;;
23474;SDS011;11910;52.086;21.066;2023-02-03T17:39:43;97.25;;;29.60;;